sensor_id;sensor_type;location;lat;lon;timestamp;P1;durP1;ratioP1;P2;durP2;ratioP2
68484;SDS011;55472;50.060;21.960;2023-11-21T00:02:16;4.68;;;2.10;;
68484;SDS011;55472;50.060;21.960;2023-11-21T00:04:42;5.23;;;2.47;;
68484;SDS011;55472;50.060;21.960;2023-11-21T00:07:08;6.95;;;2.10;;
68484;SDS011;55472;50.060;21.960;2023-11-21T00:09:34;7.25;;;2.38;;
68484;SDS011;55472;50.060;21.960;2023-11-21T00:12:01;7.20;;;2.15;;
68484;SDS011;55472;50.060;21.960;2023-11-21T00:14:28;7.00;;;2.23;;
68484;SDS011;55472;50.060;21.960;2023-11-21T00:16:54;5.85;;;2.58;;
68484;SDS011;55472;50.060;21.960;2023-11-21T00:19:21;4.65;;;2.28;;
68484;SDS011;55472;50.060;21.960;2023-11-21T00:21:47;6.82;;;2.80;;
68484;SDS011;55472;50.060;21.960;2023-11-21T00:24:13;7.70;;;3.33;;
68484;SDS011;55472;50.060;21.960;2023-11-21T00:26:39;5.53;;;2.40;;
68484;SDS011;55472;50.060;21.960;2023-11-21T00:29:06;6.88;;;2.60;;
68484;SDS011;55472;50.060;21.960;2023-11-21T00:31:36;6.82;;;3.15;;
68484;SDS011;55472;50.060;21.960;2023-11-21T02:21:56;29.27;;;12.63;;
68484;SDS011;55472;50.060;21.960;2023-11-21T02:24:28;64.95;;;21.58;;
68484;SDS011;55472;50.060;21.960;2023-11-21T02:26:54;28.00;;;7.70;;
68484;SDS011;55472;50.060;21.960;2023-11-21T02:29:21;10.00;;;3.85;;
68484;SDS011;55472;50.060;21.960;2023-11-21T02:31:53;9.03;;;3.80;;
68484;SDS011;55472;50.060;21.960;2023-11-21T02:34:20;13.63;;;4.32;;
68484;SDS011;55472;50.060;21.960;2023-11-21T02:36:48;6.93;;;3.13;;
68484;SDS011;55472;50.060;21.960;2023-11-21T02:39:17;8.82;;;3.67;;
68484;SDS011;55472;50.060;21.960;2023-11-21T02:41:47;7.05;;;2.95;;
68484;SDS011;55472;50.060;21.960;2023-11-21T02:44:14;6.43;;;2.67;;
68484;SDS011;55472;50.060;21.960;2023-11-21T02:46:40;7.18;;;3.33;;
68484;SDS011;55472;50.060;21.960;2023-11-21T02:49:06;9.90;;;3.28;;
68484;SDS011;55472;50.060;21.960;2023-11-21T02:51:33;8.32;;;3.40;;
68484;SDS011;55472;50.060;21.960;2023-11-21T02:53:59;7.10;;;2.97;;
68484;SDS011;55472;50.060;21.960;2023-11-21T02:56:28;7.43;;;2.85;;
68484;SDS011;55472;50.060;21.960;2023-11-21T02:58:58;8.13;;;2.55;;
68484;SDS011;55472;50.060;21.960;2023-11-21T03:01:26;7.28;;;2.97;;
68484;SDS011;55472;50.060;21.960;2023-11-21T03:03:53;7.82;;;3.20;;
68484;SDS011;55472;50.060;21.960;2023-11-21T03:06:20;5.40;;;2.60;;
68484;SDS011;55472;50.060;21.960;2023-11-21T03:08:47;7.10;;;3.10;;
68484;SDS011;55472;50.060;21.960;2023-11-21T03:11:13;6.97;;;2.90;;
68484;SDS011;55472;50.060;21.960;2023-11-21T03:13:40;6.65;;;2.88;;
68484;SDS011;55472;50.060;21.960;2023-11-21T03:16:10;13.25;;;6.85;;
68484;SDS011;55472;50.060;21.960;2023-11-21T03:18:38;18.50;;;10.37;;
68484;SDS011;55472;50.060;21.960;2023-11-21T03:21:05;27.10;;;15.38;;
68484;SDS011;55472;50.060;21.960;2023-11-21T03:23:34;11.38;;;5.45;;
68484;SDS011;55472;50.060;21.960;2023-11-21T03:26:02;12.38;;;3.85;;
68484;SDS011;55472;50.060;21.960;2023-11-21T03:28:29;10.32;;;3.78;;
68484;SDS011;55472;50.060;21.960;2023-11-21T03:30:58;9.43;;;3.40;;
68484;SDS011;55472;50.060;21.960;2023-11-21T03:33:24;8.70;;;3.25;;
68484;SDS011;55472;50.060;21.960;2023-11-21T03:35:50;8.68;;;3.20;;
68484;SDS011;55472;50.060;21.960;2023-11-21T03:38:18;9.07;;;3.85;;
68484;SDS011;55472;50.060;21.960;2023-11-21T03:40:45;7.68;;;3.42;;
68484;SDS011;55472;50.060;21.960;2023-11-21T03:43:11;9.07;;;3.70;;
68484;SDS011;55472;50.060;21.960;2023-11-21T03:45:38;8.63;;;4.07;;
68484;SDS011;55472;50.060;21.960;2023-11-21T03:48:06;10.27;;;4.10;;
68484;SDS011;55472;50.060;21.960;2023-11-21T03:50:33;8.70;;;3.67;;
68484;SDS011;55472;50.060;21.960;2023-11-21T03:52:59;9.50;;;3.60;;
68484;SDS011;55472;50.060;21.960;2023-11-21T03:55:25;15.67;;;8.50;;
68484;SDS011;55472;50.060;21.960;2023-11-21T03:57:51;23.00;;;12.63;;
68484;SDS011;55472;50.060;21.960;2023-11-21T04:00:18;15.77;;;8.05;;
68484;SDS011;55472;50.060;21.960;2023-11-21T04:02:45;12.80;;;6.85;;
68484;SDS011;55472;50.060;21.960;2023-11-21T04:05:12;20.67;;;11.48;;
68484;SDS011;55472;50.060;21.960;2023-11-21T04:07:38;16.17;;;10.63;;
68484;SDS011;55472;50.060;21.960;2023-11-21T04:10:05;13.27;;;7.50;;
68484;SDS011;55472;50.060;21.960;2023-11-21T04:12:34;12.32;;;5.90;;
68484;SDS011;55472;50.060;21.960;2023-11-21T04:15:02;9.20;;;4.10;;
68484;SDS011;55472;50.060;21.960;2023-11-21T04:17:29;10.43;;;4.35;;
68484;SDS011;55472;50.060;21.960;2023-11-21T04:19:56;8.80;;;4.10;;
68484;SDS011;55472;50.060;21.960;2023-11-21T04:22:22;8.43;;;3.92;;
68484;SDS011;55472;50.060;21.960;2023-11-21T04:24:48;9.40;;;3.95;;
68484;SDS011;55472;50.060;21.960;2023-11-21T04:27:14;8.63;;;4.38;;
68484;SDS011;55472;50.060;21.960;2023-11-21T04:29:43;9.75;;;4.47;;
68484;SDS011;55472;50.060;21.960;2023-11-21T04:32:09;10.73;;;4.33;;
68484;SDS011;55472;50.060;21.960;2023-11-21T04:34:36;10.07;;;4.38;;
68484;SDS011;55472;50.060;21.960;2023-11-21T04:37:02;10.40;;;4.10;;
68484;SDS011;55472;50.060;21.960;2023-11-21T04:39:31;12.48;;;5.30;;
68484;SDS011;55472;50.060;21.960;2023-11-21T04:41:57;12.48;;;5.95;;
68484;SDS011;55472;50.060;21.960;2023-11-21T04:44:24;10.07;;;5.30;;
68484;SDS011;55472;50.060;21.960;2023-11-21T04:46:50;10.82;;;5.20;;
68484;SDS011;55472;50.060;21.960;2023-11-21T04:49:16;8.52;;;4.38;;
68484;SDS011;55472;50.060;21.960;2023-11-21T04:51:42;13.10;;;6.97;;
68484;SDS011;55472;50.060;21.960;2023-11-21T04:54:08;11.75;;;6.88;;
68484;SDS011;55472;50.060;21.960;2023-11-21T04:56:35;14.60;;;8.57;;
68484;SDS011;55472;50.060;21.960;2023-11-21T04:59:01;12.25;;;5.57;;
68484;SDS011;55472;50.060;21.960;2023-11-21T05:01:28;8.93;;;3.92;;
68484;SDS011;55472;50.060;21.960;2023-11-21T05:03:55;7.45;;;3.10;;
68484;SDS011;55472;50.060;21.960;2023-11-21T05:06:22;8.43;;;3.78;;
68484;SDS011;55472;50.060;21.960;2023-11-21T05:08:49;7.90;;;3.60;;
68484;SDS011;55472;50.060;21.960;2023-11-21T05:11:25;7.50;;;3.35;;
68484;SDS011;55472;50.060;21.960;2023-11-21T05:13:53;8.48;;;3.72;;
68484;SDS011;55472;50.060;21.960;2023-11-21T05:16:21;22.98;;;8.27;;
68484;SDS011;55472;50.060;21.960;2023-11-21T05:18:47;30.38;;;10.35;;
68484;SDS011;55472;50.060;21.960;2023-11-21T05:21:15;21.03;;;7.83;;
68484;SDS011;55472;50.060;21.960;2023-11-21T05:23:42;27.38;;;10.23;;
68484;SDS011;55472;50.060;21.960;2023-11-21T05:26:08;60.50;;;16.15;;
68484;SDS011;55472;50.060;21.960;2023-11-21T05:28:34;23.00;;;9.48;;
68484;SDS011;55472;50.060;21.960;2023-11-21T05:31:00;16.90;;;8.70;;
68484;SDS011;55472;50.060;21.960;2023-11-21T05:33:27;15.13;;;7.30;;
68484;SDS011;55472;50.060;21.960;2023-11-21T05:35:53;11.15;;;5.18;;
68484;SDS011;55472;50.060;21.960;2023-11-21T05:38:19;16.92;;;7.53;;
68484;SDS011;55472;50.060;21.960;2023-11-21T05:40:47;8.63;;;4.07;;
68484;SDS011;55472;50.060;21.960;2023-11-21T05:43:13;16.60;;;7.60;;
68484;SDS011;55472;50.060;21.960;2023-11-21T05:45:40;14.23;;;7.27;;
68484;SDS011;55472;50.060;21.960;2023-11-21T05:48:06;9.82;;;4.78;;
68484;SDS011;55472;50.060;21.960;2023-11-21T05:50:32;7.68;;;3.60;;
68484;SDS011;55472;50.060;21.960;2023-11-21T05:52:59;13.02;;;6.50;;
68484;SDS011;55472;50.060;21.960;2023-11-21T05:55:25;12.15;;;6.50;;
68484;SDS011;55472;50.060;21.960;2023-11-21T05:57:52;9.63;;;4.63;;
68484;SDS011;55472;50.060;21.960;2023-11-21T06:00:20;10.98;;;6.15;;
68484;SDS011;55472;50.060;21.960;2023-11-21T06:02:51;8.35;;;3.75;;
68484;SDS011;55472;50.060;21.960;2023-11-21T06:05:19;8.43;;;4.55;;
68484;SDS011;55472;50.060;21.960;2023-11-21T06:07:50;8.85;;;4.55;;
68484;SDS011;55472;50.060;21.960;2023-11-21T06:10:19;12.47;;;6.37;;
68484;SDS011;55472;50.060;21.960;2023-11-21T06:12:47;9.20;;;3.80;;
68484;SDS011;55472;50.060;21.960;2023-11-21T06:15:13;13.90;;;6.70;;
68484;SDS011;55472;50.060;21.960;2023-11-21T06:17:40;11.43;;;6.20;;
68484;SDS011;55472;50.060;21.960;2023-11-21T06:20:08;8.75;;;4.70;;
68484;SDS011;55472;50.060;21.960;2023-11-21T06:22:40;13.53;;;4.67;;
68484;SDS011;55472;50.060;21.960;2023-11-21T06:25:12;8.00;;;3.45;;
68484;SDS011;55472;50.060;21.960;2023-11-21T06:27:40;7.00;;;3.00;;
68484;SDS011;55472;50.060;21.960;2023-11-21T06:30:11;8.32;;;3.45;;
68484;SDS011;55472;50.060;21.960;2023-11-21T06:32:39;9.52;;;4.45;;
68484;SDS011;55472;50.060;21.960;2023-11-21T06:35:06;8.00;;;3.47;;
68484;SDS011;55472;50.060;21.960;2023-11-21T06:37:34;8.63;;;4.60;;
68484;SDS011;55472;50.060;21.960;2023-11-21T06:40:00;7.72;;;3.47;;
68484;SDS011;55472;50.060;21.960;2023-11-21T06:42:26;9.55;;;4.78;;
68484;SDS011;55472;50.060;21.960;2023-11-21T06:44:54;11.07;;;5.57;;
68484;SDS011;55472;50.060;21.960;2023-11-21T06:47:22;15.63;;;7.07;;
68484;SDS011;55472;50.060;21.960;2023-11-21T06:49:54;12.05;;;5.65;;
68484;SDS011;55472;50.060;21.960;2023-11-21T06:52:21;12.60;;;6.07;;
68484;SDS011;55472;50.060;21.960;2023-11-21T06:54:48;9.35;;;4.72;;
68484;SDS011;55472;50.060;21.960;2023-11-21T06:57:16;12.82;;;6.00;;
68484;SDS011;55472;50.060;21.960;2023-11-21T06:59:43;12.57;;;5.67;;
68484;SDS011;55472;50.060;21.960;2023-11-21T07:02:10;16.15;;;6.13;;
68484;SDS011;55472;50.060;21.960;2023-11-21T07:04:36;11.63;;;5.20;;
68484;SDS011;55472;50.060;21.960;2023-11-21T07:07:03;10.98;;;4.72;;
68484;SDS011;55472;50.060;21.960;2023-11-21T07:09:32;8.93;;;4.43;;
68484;SDS011;55472;50.060;21.960;2023-11-21T07:11:58;13.37;;;5.30;;
68484;SDS011;55472;50.060;21.960;2023-11-21T07:14:24;14.05;;;5.20;;
68484;SDS011;55472;50.060;21.960;2023-11-21T07:16:51;75.40;;;20.52;;
68484;SDS011;55472;50.060;21.960;2023-11-21T07:19:18;17.25;;;6.72;;
68484;SDS011;55472;50.060;21.960;2023-11-21T07:21:45;11.38;;;4.93;;
68484;SDS011;55472;50.060;21.960;2023-11-21T07:24:11;16.20;;;8.57;;
68484;SDS011;55472;50.060;21.960;2023-11-21T07:26:37;11.60;;;5.82;;
68484;SDS011;55472;50.060;21.960;2023-11-21T07:29:03;13.57;;;6.22;;
68484;SDS011;55472;50.060;21.960;2023-11-21T07:31:31;15.57;;;6.90;;
68484;SDS011;55472;50.060;21.960;2023-11-21T07:33:59;29.00;;;12.27;;
68484;SDS011;55472;50.060;21.960;2023-11-21T07:36:26;16.57;;;6.73;;
68484;SDS011;55472;50.060;21.960;2023-11-21T07:38:52;15.15;;;6.15;;
68484;SDS011;55472;50.060;21.960;2023-11-21T07:41:19;15.20;;;6.57;;
68484;SDS011;55472;50.060;21.960;2023-11-21T07:43:46;14.68;;;6.20;;
68484;SDS011;55472;50.060;21.960;2023-11-21T07:46:13;17.92;;;7.45;;
68484;SDS011;55472;50.060;21.960;2023-11-21T07:48:40;20.53;;;8.93;;
68484;SDS011;55472;50.060;21.960;2023-11-21T07:51:08;15.60;;;6.22;;
68484;SDS011;55472;50.060;21.960;2023-11-21T07:53:35;13.98;;;6.38;;
68484;SDS011;55472;50.060;21.960;2023-11-21T07:56:08;18.83;;;7.60;;
68484;SDS011;55472;50.060;21.960;2023-11-21T07:58:35;20.25;;;8.60;;
68484;SDS011;55472;50.060;21.960;2023-11-21T08:01:05;19.63;;;8.63;;
68484;SDS011;55472;50.060;21.960;2023-11-21T08:03:32;15.18;;;7.55;;
68484;SDS011;55472;50.060;21.960;2023-11-21T08:05:58;19.58;;;9.00;;
68484;SDS011;55472;50.060;21.960;2023-11-21T08:08:25;19.17;;;8.73;;
68484;SDS011;55472;50.060;21.960;2023-11-21T08:10:53;14.52;;;5.97;;
68484;SDS011;55472;50.060;21.960;2023-11-21T08:13:22;17.03;;;8.00;;
68484;SDS011;55472;50.060;21.960;2023-11-21T08:15:56;15.25;;;6.57;;
68484;SDS011;55472;50.060;21.960;2023-11-21T08:18:27;18.48;;;7.15;;
68484;SDS011;55472;50.060;21.960;2023-11-21T08:20:54;20.30;;;8.43;;
68484;SDS011;55472;50.060;21.960;2023-11-21T08:23:20;14.40;;;7.13;;
68484;SDS011;55472;50.060;21.960;2023-11-21T08:25:51;19.07;;;9.10;;
68484;SDS011;55472;50.060;21.960;2023-11-21T08:28:18;19.77;;;8.27;;
68484;SDS011;55472;50.060;21.960;2023-11-21T08:30:45;16.40;;;7.68;;
68484;SDS011;55472;50.060;21.960;2023-11-21T08:33:12;14.55;;;7.28;;
68484;SDS011;55472;50.060;21.960;2023-11-21T08:35:38;17.27;;;7.90;;
68484;SDS011;55472;50.060;21.960;2023-11-21T08:38:04;17.13;;;7.63;;
68484;SDS011;55472;50.060;21.960;2023-11-21T08:40:31;14.75;;;7.35;;
68484;SDS011;55472;50.060;21.960;2023-11-21T08:42:57;13.52;;;5.90;;
68484;SDS011;55472;50.060;21.960;2023-11-21T08:45:24;10.30;;;4.60;;
68484;SDS011;55472;50.060;21.960;2023-11-21T08:47:54;10.68;;;4.40;;
68484;SDS011;55472;50.060;21.960;2023-11-21T08:50:20;12.53;;;5.27;;
68484;SDS011;55472;50.060;21.960;2023-11-21T08:52:46;10.60;;;5.15;;
68484;SDS011;55472;50.060;21.960;2023-11-21T08:55:13;10.68;;;4.65;;
68484;SDS011;55472;50.060;21.960;2023-11-21T08:57:40;10.15;;;4.68;;
68484;SDS011;55472;50.060;21.960;2023-11-21T09:00:09;12.02;;;5.57;;
68484;SDS011;55472;50.060;21.960;2023-11-21T09:02:41;14.77;;;5.83;;
68484;SDS011;55472;50.060;21.960;2023-11-21T09:05:08;15.20;;;7.60;;
68484;SDS011;55472;50.060;21.960;2023-11-21T09:07:35;19.30;;;8.55;;
68484;SDS011;55472;50.060;21.960;2023-11-21T09:10:03;19.63;;;8.43;;
68484;SDS011;55472;50.060;21.960;2023-11-21T09:12:36;13.00;;;6.22;;
68484;SDS011;55472;50.060;21.960;2023-11-21T09:15:07;11.47;;;4.63;;
68484;SDS011;55472;50.060;21.960;2023-11-21T09:17:35;10.82;;;5.22;;
68484;SDS011;55472;50.060;21.960;2023-11-21T09:20:01;10.00;;;4.88;;
68484;SDS011;55472;50.060;21.960;2023-11-21T09:22:31;11.90;;;6.03;;
68484;SDS011;55472;50.060;21.960;2023-11-21T09:24:58;12.05;;;5.88;;
68484;SDS011;55472;50.060;21.960;2023-11-21T09:27:24;13.63;;;6.10;;
68484;SDS011;55472;50.060;21.960;2023-11-21T09:29:53;12.75;;;6.03;;
68484;SDS011;55472;50.060;21.960;2023-11-21T09:32:19;11.25;;;4.82;;
68484;SDS011;55472;50.060;21.960;2023-11-21T09:34:48;9.02;;;4.30;;
68484;SDS011;55472;50.060;21.960;2023-11-21T09:37:14;11.35;;;4.65;;
68484;SDS011;55472;50.060;21.960;2023-11-21T09:39:42;10.23;;;4.50;;
68484;SDS011;55472;50.060;21.960;2023-11-21T09:42:10;12.27;;;5.45;;
68484;SDS011;55472;50.060;21.960;2023-11-21T09:44:55;9.95;;;3.20;;
68484;SDS011;55472;50.060;21.960;2023-11-21T09:47:30;4.93;;;2.08;;
68484;SDS011;55472;50.060;21.960;2023-11-21T09:49:58;4.70;;;1.70;;
68484;SDS011;55472;50.060;21.960;2023-11-21T09:52:29;5.23;;;1.70;;
68484;SDS011;55472;50.060;21.960;2023-11-21T09:55:03;4.10;;;1.23;;
68484;SDS011;55472;50.060;21.960;2023-11-21T09:57:31;3.63;;;1.30;;
68484;SDS011;55472;50.060;21.960;2023-11-21T09:59:58;3.92;;;1.60;;
68484;SDS011;55472;50.060;21.960;2023-11-21T10:02:30;4.55;;;1.63;;
68484;SDS011;55472;50.060;21.960;2023-11-21T10:05:02;4.70;;;1.60;;
68484;SDS011;55472;50.060;21.960;2023-11-21T10:07:28;4.20;;;1.75;;
68484;SDS011;55472;50.060;21.960;2023-11-21T10:09:57;5.13;;;1.83;;
68484;SDS011;55472;50.060;21.960;2023-11-21T10:12:26;4.53;;;2.10;;
68484;SDS011;55472;50.060;21.960;2023-11-21T10:14:54;4.60;;;1.95;;
68484;SDS011;55472;50.060;21.960;2023-11-21T10:17:24;5.10;;;1.97;;
68484;SDS011;55472;50.060;21.960;2023-11-21T10:19:55;4.40;;;1.80;;
68484;SDS011;55472;50.060;21.960;2023-11-21T10:22:22;4.40;;;1.83;;
68484;SDS011;55472;50.060;21.960;2023-11-21T10:24:50;4.25;;;1.90;;
68484;SDS011;55472;50.060;21.960;2023-11-21T10:27:16;5.07;;;1.95;;
68484;SDS011;55472;50.060;21.960;2023-11-21T10:29:42;4.50;;;2.00;;
68484;SDS011;55472;50.060;21.960;2023-11-21T10:32:08;4.57;;;1.83;;
68484;SDS011;55472;50.060;21.960;2023-11-21T10:34:35;4.82;;;2.00;;
68484;SDS011;55472;50.060;21.960;2023-11-21T10:37:10;4.30;;;1.55;;
68484;SDS011;55472;50.060;21.960;2023-11-21T10:39:38;3.83;;;1.50;;
68484;SDS011;55472;50.060;21.960;2023-11-21T10:42:04;3.45;;;1.33;;
68484;SDS011;55472;50.060;21.960;2023-11-21T10:44:35;3.42;;;1.40;;
68484;SDS011;55472;50.060;21.960;2023-11-21T10:47:01;4.28;;;1.80;;
68484;SDS011;55472;50.060;21.960;2023-11-21T10:49:29;5.87;;;1.53;;
68484;SDS011;55472;50.060;21.960;2023-11-21T10:51:55;3.72;;;1.60;;
68484;SDS011;55472;50.060;21.960;2023-11-21T10:54:25;4.65;;;1.88;;
68484;SDS011;55472;50.060;21.960;2023-11-21T10:57:01;3.90;;;1.80;;
68484;SDS011;55472;50.060;21.960;2023-11-21T10:59:29;4.57;;;1.60;;
68484;SDS011;55472;50.060;21.960;2023-11-21T11:01:57;4.30;;;1.80;;
68484;SDS011;55472;50.060;21.960;2023-11-21T11:04:27;4.40;;;1.90;;
68484;SDS011;55472;50.060;21.960;2023-11-21T11:07:02;4.80;;;1.90;;
68484;SDS011;55472;50.060;21.960;2023-11-21T11:09:31;4.68;;;1.80;;
68484;SDS011;55472;50.060;21.960;2023-11-21T11:12:01;5.55;;;1.80;;
68484;SDS011;55472;50.060;21.960;2023-11-21T11:14:30;5.87;;;2.00;;
68484;SDS011;55472;50.060;21.960;2023-11-21T11:17:38;4.15;;;1.85;;
68484;SDS011;55472;50.060;21.960;2023-11-21T11:20:08;6.22;;;2.47;;
68484;SDS011;55472;50.060;21.960;2023-11-21T11:22:44;5.10;;;2.10;;
68484;SDS011;55472;50.060;21.960;2023-11-21T11:34:24;6.47;;;2.42;;
68484;SDS011;55472;50.060;21.960;2023-11-21T11:37:02;6.07;;;2.70;;
68484;SDS011;55472;50.060;21.960;2023-11-21T11:42:33;6.77;;;2.73;;
68484;SDS011;55472;50.060;21.960;2023-11-21T11:44:59;8.05;;;3.05;;
68484;SDS011;55472;50.060;21.960;2023-11-21T11:47:26;7.80;;;3.67;;
68484;SDS011;55472;50.060;21.960;2023-11-21T11:52:39;8.45;;;3.60;;
68484;SDS011;55472;50.060;21.960;2023-11-21T11:55:08;8.73;;;3.47;;
68484;SDS011;55472;50.060;21.960;2023-11-21T11:57:44;7.47;;;3.50;;
68484;SDS011;55472;50.060;21.960;2023-11-21T12:02:47;8.05;;;3.55;;
68484;SDS011;55472;50.060;21.960;2023-11-21T12:05:16;8.15;;;3.30;;
68484;SDS011;55472;50.060;21.960;2023-11-21T12:07:45;6.97;;;3.47;;
68484;SDS011;55472;50.060;21.960;2023-11-21T12:10:15;8.02;;;3.20;;
68484;SDS011;55472;50.060;21.960;2023-11-21T12:12:44;6.93;;;3.35;;
68484;SDS011;55472;50.060;21.960;2023-11-21T12:15:15;8.85;;;4.10;;
68484;SDS011;55472;50.060;21.960;2023-11-21T12:17:42;7.55;;;3.20;;
68484;SDS011;55472;50.060;21.960;2023-11-21T12:20:09;7.73;;;3.43;;
68484;SDS011;55472;50.060;21.960;2023-11-21T12:22:44;7.72;;;3.70;;
68484;SDS011;55472;50.060;21.960;2023-11-21T12:25:18;7.80;;;3.63;;
68484;SDS011;55472;50.060;21.960;2023-11-21T12:27:49;9.60;;;4.00;;
68484;SDS011;55472;50.060;21.960;2023-11-21T12:30:22;8.82;;;3.80;;
68484;SDS011;55472;50.060;21.960;2023-11-21T12:32:54;8.13;;;4.20;;
68484;SDS011;55472;50.060;21.960;2023-11-21T12:35:24;10.38;;;4.65;;
68484;SDS011;55472;50.060;21.960;2023-11-21T12:37:54;9.20;;;4.10;;
68484;SDS011;55472;50.060;21.960;2023-11-21T12:40:22;11.10;;;4.93;;
68484;SDS011;55472;50.060;21.960;2023-11-21T12:42:50;12.68;;;5.10;;
68484;SDS011;55472;50.060;21.960;2023-11-21T12:47:58;17.63;;;6.78;;
68484;SDS011;55472;50.060;21.960;2023-11-21T12:50:29;17.42;;;7.00;;
68484;SDS011;55472;50.060;21.960;2023-11-21T12:53:02;15.65;;;6.43;;
68484;SDS011;55472;50.060;21.960;2023-11-21T12:55:31;18.98;;;7.22;;
68484;SDS011;55472;50.060;21.960;2023-11-21T12:58:00;22.27;;;7.83;;
68484;SDS011;55472;50.060;21.960;2023-11-21T13:03:08;20.88;;;7.78;;
68484;SDS011;55472;50.060;21.960;2023-11-21T13:05:38;18.50;;;7.32;;
68484;SDS011;55472;50.060;21.960;2023-11-21T13:08:08;17.90;;;7.53;;
68484;SDS011;55472;50.060;21.960;2023-11-21T13:10:41;22.33;;;8.23;;
68484;SDS011;55472;50.060;21.960;2023-11-21T13:13:13;19.10;;;7.03;;
68484;SDS011;55472;50.060;21.960;2023-11-21T13:15:56;18.83;;;7.28;;
68484;SDS011;55472;50.060;21.960;2023-11-21T13:18:29;20.17;;;7.65;;
68484;SDS011;55472;50.060;21.960;2023-11-21T13:20:57;21.23;;;7.57;;
68484;SDS011;55472;50.060;21.960;2023-11-21T13:23:25;19.63;;;7.30;;
68484;SDS011;55472;50.060;21.960;2023-11-21T13:25:52;24.55;;;8.07;;
68484;SDS011;55472;50.060;21.960;2023-11-21T13:28:20;22.23;;;7.88;;
68484;SDS011;55472;50.060;21.960;2023-11-21T13:30:49;21.23;;;7.72;;
68484;SDS011;55472;50.060;21.960;2023-11-21T13:33:18;22.05;;;8.00;;
68484;SDS011;55472;50.060;21.960;2023-11-21T13:35:47;19.37;;;7.43;;
68484;SDS011;55472;50.060;21.960;2023-11-21T13:38:16;19.52;;;7.38;;
68484;SDS011;55472;50.060;21.960;2023-11-21T13:40:48;20.52;;;7.53;;
68484;SDS011;55472;50.060;21.960;2023-11-21T13:43:21;18.98;;;6.80;;
68484;SDS011;55472;50.060;21.960;2023-11-21T13:45:51;19.83;;;7.72;;
68484;SDS011;55472;50.060;21.960;2023-11-21T13:48:40;20.10;;;7.03;;
68484;SDS011;55472;50.060;21.960;2023-11-21T13:51:11;21.90;;;7.95;;
68484;SDS011;55472;50.060;21.960;2023-11-21T13:53:44;21.77;;;7.95;;
68484;SDS011;55472;50.060;21.960;2023-11-21T13:56:13;22.02;;;7.55;;
68484;SDS011;55472;50.060;21.960;2023-11-21T13:58:45;24.13;;;7.93;;
68484;SDS011;55472;50.060;21.960;2023-11-21T14:01:48;21.40;;;7.80;;
68484;SDS011;55472;50.060;21.960;2023-11-21T14:04:18;20.77;;;8.20;;
68484;SDS011;55472;50.060;21.960;2023-11-21T14:06:51;19.52;;;6.80;;
68484;SDS011;55472;50.060;21.960;2023-11-21T14:09:21;21.13;;;7.88;;
68484;SDS011;55472;50.060;21.960;2023-11-21T14:11:51;21.33;;;7.72;;
68484;SDS011;55472;50.060;21.960;2023-11-21T14:14:26;21.13;;;7.20;;
68484;SDS011;55472;50.060;21.960;2023-11-21T14:16:56;20.02;;;6.93;;
68484;SDS011;55472;50.060;21.960;2023-11-21T14:19:24;20.85;;;7.72;;
68484;SDS011;55472;50.060;21.960;2023-11-21T14:21:57;19.95;;;7.63;;
68484;SDS011;55472;50.060;21.960;2023-11-21T14:24:23;19.08;;;7.15;;
68484;SDS011;55472;50.060;21.960;2023-11-21T14:26:50;22.43;;;7.07;;
68484;SDS011;55472;50.060;21.960;2023-11-21T14:29:17;20.13;;;7.53;;
68484;SDS011;55472;50.060;21.960;2023-11-21T14:31:49;19.15;;;6.65;;
68484;SDS011;55472;50.060;21.960;2023-11-21T14:34:17;19.83;;;7.70;;
68484;SDS011;55472;50.060;21.960;2023-11-21T14:36:51;19.35;;;7.13;;
68484;SDS011;55472;50.060;21.960;2023-11-21T14:56:42;22.88;;;7.10;;
68484;SDS011;55472;50.060;21.960;2023-11-21T15:00:25;25.57;;;8.63;;
68484;SDS011;55472;50.060;21.960;2023-11-21T15:03:07;23.27;;;8.43;;
68484;SDS011;55472;50.060;21.960;2023-11-21T15:05:35;22.63;;;8.65;;
68484;SDS011;55472;50.060;21.960;2023-11-21T15:08:02;23.73;;;8.20;;
68484;SDS011;55472;50.060;21.960;2023-11-21T15:10:44;24.92;;;9.13;;
68484;SDS011;55472;50.060;21.960;2023-11-21T15:13:18;26.90;;;8.83;;
68484;SDS011;55472;50.060;21.960;2023-11-21T15:15:45;26.48;;;9.55;;
68484;SDS011;55472;50.060;21.960;2023-11-21T15:18:12;27.08;;;9.45;;
68484;SDS011;55472;50.060;21.960;2023-11-21T15:20:41;29.92;;;9.52;;
68484;SDS011;55472;50.060;21.960;2023-11-21T15:23:09;30.42;;;10.40;;
68484;SDS011;55472;50.060;21.960;2023-11-21T15:25:35;28.37;;;9.97;;
68484;SDS011;55472;50.060;21.960;2023-11-21T15:28:01;27.45;;;10.27;;
68484;SDS011;55472;50.060;21.960;2023-11-21T15:30:28;29.75;;;10.95;;
68484;SDS011;55472;50.060;21.960;2023-11-21T15:32:57;27.80;;;9.80;;
68484;SDS011;55472;50.060;21.960;2023-11-21T15:35:24;30.10;;;10.70;;
68484;SDS011;55472;50.060;21.960;2023-11-21T15:37:53;31.33;;;10.17;;
68484;SDS011;55472;50.060;21.960;2023-11-21T15:40:24;30.25;;;10.50;;
68484;SDS011;55472;50.060;21.960;2023-11-21T15:42:50;34.00;;;11.10;;
68484;SDS011;55472;50.060;21.960;2023-11-21T15:45:16;38.22;;;11.90;;
68484;SDS011;55472;50.060;21.960;2023-11-21T15:47:46;35.25;;;12.13;;
68484;SDS011;55472;50.060;21.960;2023-11-21T15:50:12;36.53;;;12.63;;
68484;SDS011;55472;50.060;21.960;2023-11-21T15:52:40;38.30;;;12.13;;
68484;SDS011;55472;50.060;21.960;2023-11-21T15:55:06;45.17;;;13.55;;
68484;SDS011;55472;50.060;21.960;2023-11-21T15:57:34;30.58;;;10.15;;
68484;SDS011;55472;50.060;21.960;2023-11-21T16:00:00;32.00;;;10.03;;
68484;SDS011;55472;50.060;21.960;2023-11-21T16:02:26;31.77;;;10.38;;
68484;SDS011;55472;50.060;21.960;2023-11-21T16:04:52;27.98;;;10.00;;
68484;SDS011;55472;50.060;21.960;2023-11-21T16:07:18;32.85;;;10.93;;
68484;SDS011;55472;50.060;21.960;2023-11-21T16:09:44;38.23;;;12.43;;
68484;SDS011;55472;50.060;21.960;2023-11-21T16:12:11;33.72;;;11.23;;
68484;SDS011;55472;50.060;21.960;2023-11-21T16:14:37;40.30;;;11.60;;
68484;SDS011;55472;50.060;21.960;2023-11-21T16:17:13;34.78;;;12.02;;
68484;SDS011;55472;50.060;21.960;2023-11-21T16:19:39;33.55;;;12.05;;
68484;SDS011;55472;50.060;21.960;2023-11-21T16:22:10;35.63;;;11.33;;
68484;SDS011;55472;50.060;21.960;2023-11-21T16:24:36;37.00;;;12.15;;
68484;SDS011;55472;50.060;21.960;2023-11-21T16:27:03;34.50;;;11.75;;
68484;SDS011;55472;50.060;21.960;2023-11-21T16:29:30;31.90;;;10.68;;
68484;SDS011;55472;50.060;21.960;2023-11-21T16:31:58;33.33;;;10.85;;
68484;SDS011;55472;50.060;21.960;2023-11-21T16:34:26;36.40;;;10.63;;
68484;SDS011;55472;50.060;21.960;2023-11-21T16:36:54;32.53;;;11.38;;
68484;SDS011;55472;50.060;21.960;2023-11-21T16:39:24;32.63;;;10.60;;
68484;SDS011;55472;50.060;21.960;2023-11-21T16:41:50;29.45;;;10.23;;
68484;SDS011;55472;50.060;21.960;2023-11-21T16:44:17;32.70;;;10.98;;
68484;SDS011;55472;50.060;21.960;2023-11-21T16:46:48;34.60;;;10.93;;
68484;SDS011;55472;50.060;21.960;2023-11-21T16:49:18;34.80;;;10.73;;
68484;SDS011;55472;50.060;21.960;2023-11-21T16:51:45;33.92;;;10.75;;
68484;SDS011;55472;50.060;21.960;2023-11-21T16:54:13;39.33;;;14.18;;
68484;SDS011;55472;50.060;21.960;2023-11-21T16:56:41;40.92;;;12.35;;
68484;SDS011;55472;50.060;21.960;2023-11-21T16:59:10;34.27;;;11.50;;
68484;SDS011;55472;50.060;21.960;2023-11-21T17:01:37;31.55;;;10.95;;